N624MT KTPA-KLAL
Flight info
| Callsign | N624MT |
|---|---|
| Flight time | 0h 32m |
| Altitude | VFR/016 |
| Route | RV |
| Aircraft | C210/L-DOV/C |
Departure
| Time | 2026-04-26 20:21 |
|---|---|
| Airport | Tampa International Airport (KTPA) |
Arrival
| Time | 2026-04-26 20:53 |
|---|---|
| Airport | Lakeland Linder International Airport (KLAL) |
| Time | Latitude | Longitude | Altitude | Speed | Heading |
|---|---|---|---|---|---|
| 2026-04-26 20:09 | 27.96816 | -82.52432 | 38 ft | 0 kts | 271° |
| 2026-04-26 20:15 | 27.96816 | -82.52439 | 38 ft | 5 kts | 271° |
| 2026-04-26 20:16 | 27.96860 | -82.52529 | 38 ft | 19 kts | 301° |
| 2026-04-26 20:16 | 27.96938 | -82.52621 | 38 ft | 16 kts | 291° |
| 2026-04-26 20:16 | 27.96996 | -82.52674 | 37 ft | 13 kts | 1° |
| 2026-04-26 20:16 | 27.97095 | -82.52671 | 35 ft | 16 kts | 1° |
| 2026-04-26 20:17 | 27.97208 | -82.52671 | 37 ft | 18 kts | 358° |
| 2026-04-26 20:17 | 27.97370 | -82.52679 | 38 ft | 28 kts | 356° |
| 2026-04-26 20:17 | 27.97574 | -82.52698 | 37 ft | 30 kts | 0° |
| 2026-04-26 20:17 | 27.97715 | -82.52693 | 37 ft | 29 kts | 0° |
| 2026-04-26 20:18 | 27.97976 | -82.52684 | 37 ft | 29 kts | 0° |
| 2026-04-26 20:18 | 27.98183 | -82.52675 | 37 ft | 30 kts | 2° |
| 2026-04-26 20:18 | 27.98398 | -82.52669 | 38 ft | 31 kts | 360° |
| 2026-04-26 20:18 | 27.98611 | -82.52662 | 37 ft | 21 kts | 358° |
| 2026-04-26 20:19 | 27.98678 | -82.52713 | 37 ft | 0 kts | 317° |
| 2026-04-26 20:19 | 27.98682 | -82.52717 | 37 ft | 5 kts | 316° |
| 2026-04-26 20:19 | 27.98711 | -82.52809 | 32 ft | 15 kts | 256° |
| 2026-04-26 20:20 | 27.98565 | -82.52837 | 33 ft | 40 kts | 182° |
| 2026-04-26 20:20 | 27.98142 | -82.52849 | 34 ft | 81 kts | 182° |
| 2026-04-26 20:20 | 27.97511 | -82.52891 | 136 ft | 102 kts | 188° |
| 2026-04-26 20:20 | 27.96743 | -82.52914 | 315 ft | 120 kts | 188° |
| 2026-04-26 20:21 | 27.95861 | -82.52940 | 529 ft | 133 kts | 188° |
| 2026-04-26 20:21 | 27.94921 | -82.52918 | 747 ft | 138 kts | 183° |
| 2026-04-26 20:21 | 27.93938 | -82.52862 | 1026 ft | 144 kts | 181° |
| 2026-04-26 20:21 | 27.92899 | -82.52857 | 1187 ft | 154 kts | 187° |
| 2026-04-26 20:22 | 27.91821 | -82.52887 | 1432 ft | 158 kts | 186° |
| 2026-04-26 20:22 | 27.90685 | -82.52913 | 1615 ft | 164 kts | 186° |
| 2026-04-26 20:22 | 27.89494 | -82.52943 | 1634 ft | 177 kts | 186° |
| 2026-04-26 20:22 | 27.88314 | -82.52826 | 2007 ft | 169 kts | 163° |
| 2026-04-26 20:23 | 27.87438 | -82.51863 | 1946 ft | 193 kts | 116° |
| 2026-04-26 20:23 | 27.87482 | -82.50389 | 1933 ft | 192 kts | 60° |
| 2026-04-26 20:23 | 27.88471 | -82.49518 | 1942 ft | 179 kts | 13° |
| 2026-04-26 20:23 | 27.89659 | -82.49063 | 1943 ft | 183 kts | 14° |
| 2026-04-26 20:24 | 27.90878 | -82.48621 | 1855 ft | 185 kts | 12° |
| 2026-04-26 20:24 | 27.92120 | -82.48176 | 1765 ft | 188 kts | 13° |
| 2026-04-26 20:24 | 27.93388 | -82.47739 | 1678 ft | 193 kts | 13° |
| 2026-04-26 20:24 | 27.94677 | -82.47302 | 1600 ft | 193 kts | 12° |
| 2026-04-26 20:25 | 27.95949 | -82.46862 | 1604 ft | 189 kts | 13° |
| 2026-04-26 20:25 | 27.96802 | -82.46576 | 1601 ft | 190 kts | 12° |
| 2026-04-26 20:25 | 27.98472 | -82.45999 | 1601 ft | 189 kts | 13° |
| 2026-04-26 20:25 | 27.99733 | -82.45552 | 1590 ft | 190 kts | 14° |
| 2026-04-26 20:26 | 28.00990 | -82.45132 | 1595 ft | 189 kts | 12° |
| 2026-04-26 20:26 | 28.02233 | -82.44696 | 1583 ft | 185 kts | 13° |
| 2026-04-26 20:26 | 28.03465 | -82.44270 | 1587 ft | 187 kts | 13° |
| 2026-04-26 20:26 | 28.04704 | -82.43832 | 1585 ft | 185 kts | 12° |
| 2026-04-26 20:27 | 28.05916 | -82.43356 | 1587 ft | 186 kts | 19° |
| 2026-04-26 20:27 | 28.07064 | -82.42637 | 1584 ft | 189 kts | 26° |
| 2026-04-26 20:27 | 28.08212 | -82.41902 | 1587 ft | 189 kts | 25° |
| 2026-04-26 20:27 | 28.09359 | -82.41177 | 1611 ft | 187 kts | 24° |
| 2026-04-26 20:28 | 28.10488 | -82.40459 | 1675 ft | 186 kts | 25° |
| 2026-04-26 20:28 | 28.11624 | -82.39743 | 1680 ft | 187 kts | 24° |
| 2026-04-26 20:28 | 28.12767 | -82.39019 | 1696 ft | 187 kts | 24° |
| 2026-04-26 20:28 | 28.13910 | -82.38290 | 1696 ft | 189 kts | 25° |
| 2026-04-26 20:29 | 28.15043 | -82.37565 | 1702 ft | 186 kts | 26° |
| 2026-04-26 20:29 | 28.16177 | -82.36871 | 1702 ft | 185 kts | 25° |
| 2026-04-26 20:29 | 28.17299 | -82.36173 | 1693 ft | 182 kts | 23° |
| 2026-04-26 20:29 | 28.18396 | -82.35484 | 1701 ft | 181 kts | 23° |
| 2026-04-26 20:30 | 28.19518 | -82.34798 | 1702 ft | 184 kts | 23° |
| 2026-04-26 20:30 | 28.20621 | -82.34109 | 1701 ft | 183 kts | 25° |
| 2026-04-26 20:30 | 28.21752 | -82.33428 | 1700 ft | 186 kts | 26° |
| 2026-04-26 20:30 | 28.22890 | -82.32732 | 1702 ft | 188 kts | 25° |
| 2026-04-26 20:31 | 28.24028 | -82.32033 | 1700 ft | 186 kts | 24° |
| 2026-04-26 20:31 | 28.25162 | -82.31331 | 1705 ft | 184 kts | 24° |
| 2026-04-26 20:31 | 28.26057 | -82.30266 | 1684 ft | 195 kts | 62° |
| 2026-04-26 20:31 | 28.26194 | -82.28747 | 1692 ft | 195 kts | 97° |
| 2026-04-26 20:32 | 28.26060 | -82.27231 | 1703 ft | 193 kts | 91° |
| 2026-04-26 20:32 | 28.26063 | -82.25701 | 1711 ft | 196 kts | 86° |
| 2026-04-26 20:32 | 28.26118 | -82.24146 | 1712 ft | 197 kts | 87° |
| 2026-04-26 20:32 | 28.26168 | -82.22601 | 1710 ft | 195 kts | 85° |
| 2026-04-26 20:33 | 28.26211 | -82.21057 | 1710 ft | 197 kts | 88° |
| 2026-04-26 20:33 | 28.26252 | -82.19512 | 1710 ft | 196 kts | 86° |
| 2026-04-26 20:33 | 28.26297 | -82.17959 | 1704 ft | 198 kts | 87° |
| 2026-04-26 20:33 | 28.26341 | -82.16396 | 1705 ft | 198 kts | 87° |
| 2026-04-26 20:34 | 28.26369 | -82.15348 | 1710 ft | 196 kts | 87° |
| 2026-04-26 20:34 | 28.26410 | -82.13825 | 1716 ft | 197 kts | 87° |
| 2026-04-26 20:34 | 28.26459 | -82.12257 | 1705 ft | 196 kts | 87° |
| 2026-04-26 20:34 | 28.26504 | -82.10724 | 1695 ft | 193 kts | 87° |
| 2026-04-26 20:35 | 28.26539 | -82.09205 | 1699 ft | 193 kts | 88° |
| 2026-04-26 20:35 | 28.26578 | -82.07675 | 1711 ft | 196 kts | 86° |
| 2026-04-26 20:35 | 28.26618 | -82.06130 | 1698 ft | 195 kts | 88° |
| 2026-04-26 20:35 | 28.26662 | -82.04594 | 1697 ft | 195 kts | 86° |
| 2026-04-26 20:36 | 28.26703 | -82.03053 | 1700 ft | 196 kts | 89° |
| 2026-04-26 20:36 | 28.26744 | -82.01510 | 1704 ft | 195 kts | 87° |
| 2026-04-26 20:36 | 28.26785 | -81.99966 | 1698 ft | 196 kts | 88° |
| 2026-04-26 20:36 | 28.26825 | -81.98431 | 1699 ft | 194 kts | 87° |
| 2026-04-26 20:37 | 28.26865 | -81.96902 | 1695 ft | 194 kts | 88° |
| 2026-04-26 20:37 | 28.26906 | -81.95365 | 1700 ft | 196 kts | 86° |
| 2026-04-26 20:37 | 28.26945 | -81.93837 | 1693 ft | 196 kts | 86° |
| 2026-04-26 20:37 | 28.26770 | -81.92341 | 1676 ft | 189 kts | 108° |
| 2026-04-26 20:38 | 28.26147 | -81.91091 | 1678 ft | 177 kts | 131° |
| 2026-04-26 20:38 | 28.25286 | -81.90137 | 1681 ft | 173 kts | 138° |
| 2026-04-26 20:38 | 28.24418 | -81.89195 | 1684 ft | 172 kts | 139° |
| 2026-04-26 20:38 | 28.23555 | -81.88259 | 1682 ft | 171 kts | 139° |
| 2026-04-26 20:39 | 28.22690 | -81.87326 | 1680 ft | 172 kts | 140° |
| 2026-04-26 20:39 | 28.21825 | -81.86393 | 1683 ft | 170 kts | 140° |
| 2026-04-26 20:39 | 28.20981 | -81.85482 | 1681 ft | 166 kts | 139° |
| 2026-04-26 20:39 | 28.20147 | -81.84583 | 1677 ft | 165 kts | 140° |
| 2026-04-26 20:40 | 28.19321 | -81.83693 | 1678 ft | 164 kts | 139° |
| 2026-04-26 20:40 | 28.18493 | -81.82802 | 1676 ft | 164 kts | 139° |
| 2026-04-26 20:40 | 28.17662 | -81.81920 | 1676 ft | 163 kts | 142° |
| 2026-04-26 20:40 | 28.16666 | -81.81379 | 1675 ft | 150 kts | 172° |
| 2026-04-26 20:41 | 28.15688 | -81.81361 | 1667 ft | 136 kts | 196° |
| 2026-04-26 20:41 | 28.14847 | -81.81696 | 1673 ft | 124 kts | 208° |
| 2026-04-26 20:41 | 28.14025 | -81.82081 | 1678 ft | 131 kts | 209° |
| 2026-04-26 20:41 | 28.13175 | -81.82478 | 1645 ft | 135 kts | 207° |
| 2026-04-26 20:42 | 28.12305 | -81.82912 | 1521 ft | 136 kts | 213° |
| 2026-04-26 20:42 | 28.11716 | -81.83630 | 1374 ft | 115 kts | 246° |
| 2026-04-26 20:42 | 28.11404 | -81.84425 | 1205 ft | 109 kts | 249° |
| 2026-04-26 20:42 | 28.11118 | -81.85133 | 1152 ft | 88 kts | 249° |
| 2026-04-26 20:43 | 28.10877 | -81.85741 | 1154 ft | 80 kts | 249° |
| 2026-04-26 20:43 | 28.10632 | -81.86355 | 1176 ft | 93 kts | 249° |
| 2026-04-26 20:43 | 28.10353 | -81.87063 | 1205 ft | 100 kts | 251° |
| 2026-04-26 20:43 | 28.10070 | -81.87775 | 1192 ft | 96 kts | 249° |
| 2026-04-26 20:44 | 28.09807 | -81.88438 | 1171 ft | 90 kts | 248° |
| 2026-04-26 20:44 | 28.09556 | -81.89066 | 1171 ft | 86 kts | 251° |
| 2026-04-26 20:44 | 28.09309 | -81.89691 | 1194 ft | 90 kts | 250° |
| 2026-04-26 20:44 | 28.09058 | -81.90325 | 1180 ft | 86 kts | 251° |
| 2026-04-26 20:45 | 28.08809 | -81.90949 | 1185 ft | 88 kts | 251° |
| 2026-04-26 20:45 | 28.08555 | -81.91601 | 1194 ft | 93 kts | 251° |
| 2026-04-26 20:45 | 28.08268 | -81.92312 | 1200 ft | 103 kts | 251° |
| 2026-04-26 20:45 | 28.07997 | -81.92999 | 1276 ft | 95 kts | 259° |
| 2026-04-26 20:46 | 28.07850 | -81.93757 | 1289 ft | 102 kts | 261° |
| 2026-04-26 20:46 | 28.07724 | -81.94575 | 1275 ft | 104 kts | 264° |
| 2026-04-26 20:46 | 28.07668 | -81.95323 | 1343 ft | 91 kts | 268° |
| 2026-04-26 20:46 | 28.07636 | -81.96040 | 1237 ft | 88 kts | 269° |
| 2026-04-26 20:47 | 28.07596 | -81.96683 | 1100 ft | 78 kts | 270° |
| 2026-04-26 20:47 | 28.07578 | -81.97088 | 1072 ft | 76 kts | 271° |
| 2026-04-26 20:47 | 28.07465 | -81.98010 | 1133 ft | 98 kts | 256° |
| 2026-04-26 20:47 | 28.07153 | -81.98698 | 1175 ft | 104 kts | 238° |
| 2026-04-26 20:48 | 28.06720 | -81.99299 | 1294 ft | 94 kts | 236° |
| 2026-04-26 20:48 | 28.06309 | -81.99902 | 1253 ft | 105 kts | 239° |
| 2026-04-26 20:48 | 28.05847 | -82.00565 | 1212 ft | 107 kts | 234° |
| 2026-04-26 20:48 | 28.05363 | -82.01225 | 1087 ft | 114 kts | 239° |
| 2026-04-26 20:49 | 28.04766 | -82.01859 | 998 ft | 117 kts | 208° |
| 2026-04-26 20:49 | 28.04019 | -82.01938 | 928 ft | 102 kts | 183° |
| 2026-04-26 20:49 | 28.03294 | -82.01856 | 1045 ft | 112 kts | 183° |
| 2026-04-26 20:49 | 28.02472 | -82.01599 | 1037 ft | 127 kts | 152° |
| 2026-04-26 20:50 | 28.01936 | -82.00863 | 1022 ft | 120 kts | 122° |
| 2026-04-26 20:50 | 28.01633 | -82.00022 | 1011 ft | 111 kts | 103° |
| 2026-04-26 20:50 | 28.01535 | -81.99180 | 1049 ft | 110 kts | 97° |
| 2026-04-26 20:50 | 28.01423 | -81.98269 | 1017 ft | 123 kts | 114° |
| 2026-04-26 20:51 | 28.00840 | -81.97616 | 1067 ft | 118 kts | 157° |
| 2026-04-26 20:51 | 28.00130 | -81.97529 | 1064 ft | 96 kts | 206° |
| 2026-04-26 20:51 | 27.99620 | -81.98001 | 821 ft | 93 kts | 239° |
| 2026-04-26 20:51 | 27.99321 | -81.98551 | 714 ft | 78 kts | 253° |
| 2026-04-26 20:52 | 27.99176 | -81.99111 | 517 ft | 73 kts | 258° |
| 2026-04-26 20:52 | 27.99063 | -81.99679 | 439 ft | 77 kts | 265° |
| 2026-04-26 20:52 | 27.99033 | -82.00311 | 374 ft | 83 kts | 272° |
| 2026-04-26 20:52 | 27.99046 | -82.00947 | 311 ft | 78 kts | 272° |
| 2026-04-26 20:53 | 27.99044 | -82.01505 | 193 ft | 63 kts | 270° |
| 2026-04-26 20:53 | 27.99040 | -82.01993 | 149 ft | 60 kts | 270° |
| 2026-04-26 20:53 | 27.99037 | -82.02367 | 140 ft | 40 kts | 269° |
| 2026-04-26 20:53 | 27.99037 | -82.02737 | 138 ft | 47 kts | 270° |
| 2026-04-26 20:54 | 27.99035 | -82.03057 | 134 ft | 36 kts | 269° |
| 2026-04-26 20:54 | 27.99010 | -82.03332 | 134 ft | 29 kts | 218° |
| 2026-04-26 20:54 | 27.98836 | -82.03344 | 136 ft | 21 kts | 148° |
| 2026-04-26 20:54 | 27.98816 | -82.03312 | 136 ft | 0 kts | 95° |
| 2026-04-26 20:55 | 27.98815 | -82.03301 | 135 ft | 7 kts | 92° |
| 2026-04-26 20:55 | 27.98815 | -82.03165 | 136 ft | 28 kts | 89° |
| 2026-04-26 20:55 | 27.98815 | -82.02921 | 133 ft | 32 kts | 89° |
| 2026-04-26 20:55 | 27.98816 | -82.02675 | 134 ft | 30 kts | 90° |
| 2026-04-26 20:56 | 27.98817 | -82.02446 | 135 ft | 28 kts | 91° |
| 2026-04-26 20:56 | 27.98778 | -82.02296 | 135 ft | 15 kts | 184° |
| 2026-04-26 20:56 | 27.98700 | -82.02275 | 135 ft | 11 kts | 157° |
| 2026-04-26 20:56 | 27.98672 | -82.02270 | 136 ft | 0 kts | 191° |